Flag for Spain

Past Weather in 43°15'49.5"N, 2°55'37.0"W, Spain — Yesterday and Last 2 Weeks

Currently: 45 °F. Broken clouds. (Weather station: Bilbao / Sondica, Spain). See more current weather

Past Weather in 43°15'49.5"N, 2°55'37.0"W — Graph

°F

43°15'49.5"N, 2°55'37.0"W Temperature Yesterday

Maximum temperature yesterday: 54 °F (at 12:00 pm)
Minimum temperature yesterday: 41 °F (at 2:00 am)
Average temperature yesterday: 47 °F

High & Low Weather Summary for the Past Weeks

 TemperatureHumidityPressure
High72 °F (Feb 24, 2:30 pm)100% (Feb 22, 7:00 am)30.51 "Hg (Feb 22, 7:00 am)
Low41 °F (Feb 28, 7:30 am)38% (Mar 3, 4:30 pm)29.98 "Hg (Feb 22, 7:00 am)
Average54 °F76%30.26 "Hg
* Reported Feb 22 7:00 am — Mar 9 7:30 am, 43°15'49.5"N, 2°55'37.0"W. Weather by CustomWeather, © 2021

Note: Actual official high and low records may vary slightly from our data, if they occured in-between our weather recording intervals... More about our weather records

43°15'49.5"N, 2°55'37.0"W Weather History for the Previous 24 Hours

Scroll right to see more
 ConditionsComfort  
Time TempWeatherWind HumidityBarometerVisibility
7:30 am
Tue, Mar 9
45 °FLight rain. Partly cloudy.2 mph100%30.18 "Hg4 mi
7:00 am45 °FLight rain. Partly cloudy.1 mph100%30.18 "Hg4 mi
6:30 am45 °FPartly cloudy.1 mph93%30.18 "Hg4 mi
6:00 am45 °FPartly cloudy.2 mph100%30.18 "Hg3 mi
5:30 am45 °FPartly cloudy.2 mph100%30.18 "Hg4 mi
5:00 am45 °FPartly cloudy.2 mph100%30.18 "Hg4 mi
4:30 am45 °FPassing clouds.3 mph100%30.18 "HgN/A
4:00 am45 °FPartly cloudy.3 mph100%30.18 "Hg4 mi
3:30 am46 °FPartly cloudy.6 mph87%30.18 "HgN/A
3:00 am46 °FPartly cloudy.5 mph87%30.18 "HgN/A
2:30 am46 °FPartly cloudy.6 mph87%30.21 "HgN/A
1:30 am46 °FPartly cloudy.No wind93%30.18 "HgN/A
1:00 am46 °FPassing clouds.2 mph93%30.18 "Hg6 mi
12:30 am46 °FPassing clouds.2 mph93%30.18 "HgN/A
12:00 am46 °FPartly cloudy.2 mph93%30.18 "HgN/A
11:30 pm
Mon, Mar 8
46 °FPassing clouds.3 mph93%30.18 "HgN/A
11:00 pm46 °FPassing clouds.3 mph93%30.18 "HgN/A
10:30 pm46 °FPassing clouds.2 mph87%30.18 "HgN/A
10:00 pm48 °FPassing clouds.No wind82%30.18 "HgN/A
9:30 pm48 °FPassing clouds.No wind82%30.18 "HgN/A
9:00 pm48 °FPassing clouds.3 mph76%30.15 "HgN/A
8:30 pm50 °FPassing clouds.3 mph76%30.15 "HgN/A
8:00 pm50 °FPassing clouds.3 mph76%30.15 "HgN/A
7:30 pm50 °FPassing clouds.1 mph76%30.12 "HgN/A
7:00 pm50 °FScattered clouds.2 mph76%30.12 "HgN/A
6:30 pm50 °FPartly sunny.5 mph76%30.12 "HgN/A
6:00 pm52 °FScattered clouds.8 mph72%30.12 "HgN/A
5:30 pm52 °FBroken clouds.9 mph72%30.12 "HgN/A
5:00 pm52 °FPartly sunny.9 mph72%30.12 "HgN/A
4:30 pm54 °FScattered clouds.10 mph67%30.12 "HgN/A
4:00 pm52 °FPartly sunny.10 mph67%30.12 "HgN/A
3:30 pm52 °FPartly sunny.8 mph72%30.12 "HgN/A
3:00 pm52 °FPartly sunny.9 mph72%30.09 "HgN/A
2:30 pm52 °FPartly sunny.7 mph72%30.12 "HgN/A
1:30 pm52 °FBroken clouds.9 mph67%30.12 "HgN/A
1:00 pm52 °FBroken clouds.8 mph72%30.12 "HgN/A
12:30 pm54 °FScattered clouds.9 mph67%30.12 "HgN/A
12:00 pm54 °FScattered clouds.7 mph67%30.12 "HgN/A
11:30 am52 °FPassing clouds.2 mph77%30.12 "HgN/A
11:00 am50 °FPassing clouds.No wind76%30.12 "HgN/A
10:30 am48 °FPassing clouds.3 mph82%30.12 "HgN/A
10:00 am46 °FPassing clouds.5 mph87%30.12 "HgN/A
9:30 am45 °FPassing clouds.3 mph93%30.09 "HgN/A
9:00 am45 °FPassing clouds.3 mph93%30.09 "HgN/A
Weather by CustomWeather, © 2021

See weather overview